Time;durP1;ratioP1;P1;durP2;ratioP2;P2;SDS_P1;SDS_P2;PMS_P1;PMS_P2;Temp;Humidity;BMP_temperature;BMP_pressure;BME280_temperature;BME280_humidity;BME280_pressure;Samples;Min_cycle;Max_cycle;Signal;HPM_P1;HPM_P2
2023/10/21 00:06:49;;;;;;;3.55;3.25;;;;;;;14.00;100.00;99759.59;4975198;28;20105;-75
2023/10/21 00:09:14;;;;;;;3.13;2.72;;;;;;;14.07;100.00;99790.19;4974684;28;20038;-75
2023/10/21 00:11:40;;;;;;;7.00;5.45;;;;;;;13.90;100.00;99774.78;4975464;28;20077;-74
2023/10/21 00:14:06;;;;;;;8.10;4.85;;;;;;;13.92;100.00;99779.09;4973394;28;20041;-74
2023/10/21 00:19:53;;;;;;;5.32;3.78;;;;;;;14.45;100.00;99854.38;4975108;28;20535;-74
2023/10/21 00:22:19;;;;;;;3.45;3.05;;;;;;;14.40;100.00;99867.69;4974422;28;20129;-74
2023/10/21 00:24:44;;;;;;;8.02;7.25;;;;;;;14.13;100.00;99838.41;4975258;28;20043;-74
2023/10/21 00:27:10;;;;;;;3.08;2.83;;;;;;;13.71;100.00;99751.47;4973015;28;20494;-74
2023/10/21 00:29:44;;;;;;;5.78;4.13;;;;;;;14.40;100.00;99854.50;4972279;28;20114;-74
2023/10/21 00:39:20;;;;;;;6.65;3.95;;;;;;;14.31;100.00;99883.75;4974979;28;20434;-75
2023/10/21 00:42:20;;;;;;;3.70;3.40;;;;;;;14.38;100.00;99889.75;4972583;28;20182;-77
2023/10/21 00:48:07;;;;;;;4.53;3.40;;;;;;;13.70;100.00;99799.00;4973111;28;20037;-75
2023/10/21 00:53:58;;;;;;;6.53;3.83;;;;;;;14.13;100.00;99885.91;4975042;28;20536;-74
2023/10/21 00:56:24;;;;;;;12.20;4.70;;;;;;;14.05;100.00;99868.53;4974671;28;20113;-74
2023/10/21 00:58:51;;;;;;;3.72;3.38;;;;;;;14.04;100.00;99867.63;4973263;28;20363;-74
2023/10/21 01:04:39;;;;;;;3.17;2.88;;;;;;;13.99;100.00;99884.47;4968994;28;20066;-75
2023/10/21 01:07:05;;;;;;;5.88;4.88;;;;;;;13.39;100.00;99752.22;4972062;28;20391;-74
2023/10/21 01:09:31;;;;;;;8.95;5.38;;;;;;;13.77;100.00;99797.09;5002311;28;20035;-75
2023/10/21 01:11:56;;;;;;;5.28;4.55;;;;;;;13.41;100.00;99791.72;4974070;28;20030;-75
2023/10/21 01:14:22;;;;;;;6.45;5.60;;;;;;;14.14;100.00;99906.13;4972827;28;20022;-73
2023/10/21 01:16:48;;;;;;;7.28;3.92;;;;;;;13.48;100.00;99799.44;4973915;28;20035;-75
2023/10/21 01:19:13;;;;;;;4.55;4.15;;;;;;;13.41;100.00;99796.97;4971047;28;20023;-76
2023/10/21 01:21:39;;;;;;;8.57;7.05;;;;;;;13.77;100.00;99876.19;4967808;28;20478;-75
2023/10/21 01:27:26;;;;;;;3.70;3.40;;;;;;;14.26;100.00;99894.41;4954904;28;20131;-75
2023/10/21 01:30:27;;;;;;;5.20;4.40;;;;;;;14.38;100.00;99901.16;4974185;28;20110;-74
2023/10/21 01:36:50;;;;;;;7.45;4.72;;;;;;;14.33;100.00;99897.78;4973928;28;20046;-75
2023/10/21 01:40:10;;;;;;;4.75;4.28;;;;;;;14.49;100.00;99895.59;4970661;28;20043;-75
2023/10/21 01:43:05;;;;;;;4.22;3.78;;;;;;;14.38;100.00;99895.03;4970284;28;20039;-75
2023/10/21 01:48:52;;;;;;;6.30;4.72;;;;;;;14.44;100.00;99884.31;4973930;28;20082;-74
2023/10/21 01:51:17;;;;;;;12.00;5.75;;;;;;;14.09;100.00;99831.50;4968376;28;20047;-75
2023/10/21 01:53:43;;;;;;;13.65;5.05;;;;;;;14.41;100.00;99893.16;4974005;28;20033;-75
2023/10/21 01:56:09;;;;;;;4.82;4.35;;;;;;;13.81;100.00;99796.09;4972219;28;20126;-76
2023/10/21 02:01:56;;;;;;;4.13;3.70;;;;;;;14.37;100.00;99899.41;4971964;28;20093;-75
2023/10/21 02:04:22;;;;;;;7.10;3.65;;;;;;;14.43;100.00;99909.84;4971477;28;20039;-75
2023/10/21 02:06:47;;;;;;;8.10;4.55;;;;;;;13.74;100.00;99803.28;4973478;28;20418;-74
2023/10/21 02:09:12;;;;;;;4.55;4.15;;;;;;;14.08;100.00;99850.84;4973049;28;20039;-75
2023/10/21 02:11:39;;;;;;;3.25;2.95;;;;;;;14.26;100.00;99893.56;4977791;28;20026;-76
2023/10/21 02:14:04;;;;;;;9.38;3.65;;;;;;;14.19;100.00;99882.25;4976179;28;20035;-75
2023/10/21 02:16:30;;;;;;;4.57;3.45;;;;;;;13.93;100.00;99848.56;4977352;28;20131;-75
2023/10/21 02:19:13;;;;;;;5.63;5.13;;;;;;;14.43;100.00;99914.25;4975681;28;20097;-75
2023/10/21 02:21:39;;;;;;;6.15;5.22;;;;;;;14.45;100.00;99915.94;4957539;28;20035;-75
2023/10/21 02:24:05;;;;;;;5.20;3.75;;;;;;;13.82;100.00;99856.72;4957636;28;20023;-74
2023/10/21 02:26:31;;;;;;;5.00;4.57;;;;;;;13.66;100.00;99815.78;4958041;28;20031;-74
2023/10/21 02:29:15;;;;;;;3.83;3.53;;;;;;;13.60;100.00;99806.25;4958640;28;20046;-74
2023/10/21 02:31:40;;;;;;;3.50;3.20;;;;;;;14.14;100.00;99915.78;5007805;28;20038;-75
2023/10/21 02:41:59;;;;;;;6.53;5.45;;;;;;;14.24;100.00;99908.53;4970840;28;20113;-75
2023/10/21 02:48:21;;;;;;;11.80;6.22;;;;;;;14.56;100.00;99911.31;4957589;28;20054;-75
2023/10/21 02:54:08;;;;;;;7.07;5.22;;;;;;;14.54;100.00;99862.97;4957170;28;20046;-74
2023/10/21 02:59:55;;;;;;;5.75;2.88;;;;;;;14.12;100.00;99802.38;4956472;28;20077;-76
2023/10/21 03:09:06;;;;;;;4.50;4.10;;;;;;;13.80;100.00;99782.03;4957110;28;20046;-74
2023/10/21 03:11:32;;;;;;;8.80;4.32;;;;;;;14.22;100.00;99878.69;4954078;28;20039;-74
2023/10/21 03:13:57;;;;;;;5.43;5.00;;;;;;;14.05;100.00;99821.91;4987721;28;20050;-75
2023/10/21 03:19:44;;;;;;;3.88;3.58;;;;;;;14.39;100.00;99836.91;4955920;28;20398;-75
2023/10/21 03:25:33;;;;;;;5.18;3.53;;;;;;;13.83;100.00;99792.50;4956588;28;20558;-74
2023/10/21 03:27:59;;;;;;;7.57;5.97;;;;;;;14.15;100.00;99826.03;4956718;28;20094;-74
2023/10/21 03:30:24;;;;;;;6.55;5.25;;;;;;;14.02;100.00;99835.16;4955092;28;20047;-75
2023/10/21 03:32:50;;;;;;;6.45;5.10;;;;;;;14.28;100.00;99850.38;4956243;28;20029;-74
2023/10/21 03:35:15;;;;;;;3.30;3.00;;;;;;;14.56;100.00;99897.22;4953738;29;20020;-75
2023/10/21 03:37:41;;;;;;;7.75;6.95;;;;;;;13.95;100.00;99799.25;4953299;28;20066;-74
2023/10/21 03:40:10;;;;;;;6.90;4.07;;;;;;;14.53;100.00;99900.78;4956477;28;20039;-74
2023/10/21 03:46:23;;;;;;;5.03;3.90;;;;;;;14.19;100.00;99905.13;4964504;28;20463;-75
2023/10/21 03:48:50;;;;;;;3.55;2.65;;;;;;;14.15;100.00;99913.13;4975364;28;20043;-76
2023/10/21 03:54:37;;;;;;;5.13;4.72;;;;;;;13.87;100.00;99860.13;4973697;28;20363;-76
2023/10/21 03:57:03;;;;;;;7.35;5.03;;;;;;;12.53;100.00;99664.47;4973957;28;20015;-75
2023/10/21 04:09:39;;;;;;;7.43;6.72;;;;;;;14.04;100.00;99909.00;4973924;28;20387;-75
2023/10/21 04:12:05;;;;;;;3.50;3.05;;;;;;;13.98;100.00;99875.72;4973282;28;20504;-75
2023/10/21 04:14:30;;;;;;;4.00;3.67;;;;;;;14.19;100.00;99884.91;4975419;28;20027;-74
2023/10/21 04:16:56;;;;;;;4.32;3.58;;;;;;;13.93;100.00;99838.88;4972962;28;20126;-74
2023/10/21 04:22:43;;;;;;;6.90;5.05;;;;;;;14.31;100.00;99918.91;4974981;28;20042;-75
2023/10/21 04:29:12;;;;;;;4.55;4.15;;;;;;;14.17;100.00;99913.09;4971671;28;20426;-75
2023/10/21 04:31:39;;;;;;;3.65;3.13;;;;;;;13.59;100.00;99804.50;4955121;28;20397;-75
2023/10/21 04:34:04;;;;;;;4.50;4.03;;;;;;;14.31;100.00;99910.13;4974612;28;20042;-75
2023/10/21 04:36:30;;;;;;;3.22;2.78;;;;;;;14.36;100.00;99905.63;4971623;28;20034;-75
2023/10/21 04:42:17;;;;;;;3.83;3.53;;;;;;;14.39;100.00;99912.59;4974630;28;20042;-74
2023/10/21 04:44:43;;;;;;;4.47;3.97;;;;;;;14.57;100.00;99928.03;4969158;28;20019;-74
2023/10/21 04:47:09;;;;;;;5.90;3.50;;;;;;;14.40;100.00;99922.22;4971183;28;20078;-74
2023/10/21 04:49:34;;;;;;;5.07;4.32;;;;;;;13.83;100.00;99847.03;4974405;28;20489;-75
2023/10/21 04:52:01;;;;;;;10.20;6.28;;;;;;;14.34;100.00;99947.00;4973716;28;20374;-75
2023/10/21 04:54:26;;;;;;;3.30;3.00;;;;;;;14.04;100.00;99938.88;4974306;28;20035;-75
2023/10/21 04:56:52;;;;;;;7.38;5.35;;;;;;;13.59;100.00;99870.41;4972082;28;20034;-74
2023/10/21 05:02:38;;;;;;;5.15;2.38;;;;;;;14.45;100.00;99959.97;4974915;28;20407;-75
2023/10/21 05:05:04;;;;;;;5.93;5.43;;;;;;;13.70;100.00;99871.03;4973427;28;20054;-74
2023/10/21 05:07:31;;;;;;;5.18;4.72;;;;;;;14.04;100.00;99936.22;4974060;28;20359;-74
2023/10/21 05:13:19;;;;;;;7.70;6.07;;;;;;;14.21;100.00;99927.97;4970805;28;20070;-75
2023/10/21 05:19:06;;;;;;;4.65;4.25;;;;;;;13.83;100.00;99878.69;4974168;28;20034;-75
2023/10/21 05:21:59;;;;;;;4.10;3.65;;;;;;;14.53;100.00;99980.00;4970351;28;20042;-75
2023/10/21 05:24:24;;;;;;;4.97;4.47;;;;;;;13.61;100.00;99880.91;4954373;28;20039;-75
2023/10/21 05:26:50;;;;;;;9.63;7.35;;;;;;;14.45;100.00;99997.78;4953758;28;20038;-74
2023/10/21 05:29:15;;;;;;;5.00;4.00;;;;;;;14.02;100.00;99897.59;4974063;28;20031;-74
2023/10/21 05:31:41;;;;;;;4.63;4.22;;;;;;;12.79;100.00;99684.13;4973296;28;20065;-74
2023/10/21 05:34:07;;;;;;;10.70;3.53;;;;;;;13.88;100.00;99875.06;4971826;28;20042;-75
2023/10/21 05:36:32;;;;;;;4.55;3.95;;;;;;;14.01;100.00;99886.19;4971280;28;20340;-74
2023/10/21 05:39:04;;;;;;;3.55;3.20;;;;;;;14.70;100.00;99999.88;4973667;28;20023;-74
2023/10/21 05:41:29;;;;;;;9.75;5.70;;;;;;;14.09;100.00;99881.63;4953435;29;20121;-75
2023/10/21 05:43:54;;;;;;;6.25;3.45;;;;;;;14.65;100.00;100007.06;4960511;28;20130;-75
2023/10/21 05:50:36;;;;;;;6.72;3.25;;;;;;;14.98;100.00;100000.09;4970350;28;20371;-74
2023/10/21 05:59:45;;;;;;;5.28;3.83;;;;;;;14.62;100.00;99925.28;4961861;28;20045;-75
2023/10/21 06:02:12;;;;;;;5.03;4.53;;;;;;;15.22;100.00;100024.16;4977537;28;20023;-76
2023/10/21 06:04:38;;;;;;;7.40;6.72;;;;;;;15.35;100.00;100029.09;4976844;28;20439;-75
2023/10/21 06:14:05;;;;;;;3.92;3.53;;;;;;;15.63;100.00;100028.38;4977247;28;20440;-75
2023/10/21 06:16:30;;;;;;;6.53;5.85;;;;;;;15.48;100.00;99978.56;4977039;28;20463;-75
2023/10/21 06:18:56;;;;;;;8.55;5.88;;;;;;;15.32;100.00;99949.00;4984254;28;20128;-74
2023/10/21 06:21:22;;;;;;;6.25;3.97;;;;;;;15.76;100.00;100007.78;4989422;28;20072;-76
2023/10/21 06:24:08;;;;;;;1.88;1.77;;;;;;;15.98;100.00;100031.84;4995333;28;20065;-75
2023/10/21 06:26:33;;;;;;;8.88;3.63;;;;;;;16.00;100.00;100020.31;4975278;28;20035;-76
2023/10/21 06:29:00;;;;;;;2.63;2.42;;;;;;;15.57;100.00;99926.28;4976284;28;20093;-75
2023/10/21 06:31:26;;;;;;;2.97;2.63;;;;;;;16.15;100.00;100012.84;4976383;28;20046;-75
2023/10/21 06:33:56;;;;;;;3.30;2.33;;;;;;;15.92;100.00;99950.00;4973189;28;20070;-76
2023/10/21 06:36:22;;;;;;;3.88;2.25;;;;;;;15.99;100.00;99954.19;4973129;28;20094;-74
2023/10/21 06:38:50;;;;;;;6.32;3.90;;;;;;;15.96;100.00;99928.69;4974927;28;20332;-75
2023/10/21 06:41:16;;;;;;;3.92;3.50;;;;;;;16.09;100.00;99941.56;4974866;28;20023;-75
2023/10/21 06:47:03;;;;;;;4.22;3.42;;;;;;;16.91;100.00;100041.44;4976388;28;20113;-74
2023/10/21 06:50:40;;;;;;;1.40;1.33;;;;;;;17.07;100.00;100048.00;4966150;28;20507;-75
2023/10/21 06:53:14;;;;;;;17.98;6.43;;;;;;;16.71;100.00;99951.09;4954504;28;20134;-75
2023/10/21 06:55:41;;;;;;;8.52;3.95;;;;;;;17.30;100.00;100038.38;4954041;28;20073;-75
2023/10/21 06:58:19;;;;;;;6.25;4.90;;;;;;;16.99;100.00;99959.88;4955709;28;20466;-75
2023/10/21 07:00:46;;;;;;;4.68;3.40;;;;;;;17.03;100.00;99952.72;4951721;28;20039;-75
2023/10/21 07:03:12;;;;;;;3.08;2.80;;;;;;;17.12;100.00;99957.69;4956820;28;20074;-74
2023/10/21 07:05:38;;;;;;;2.28;1.58;;;;;;;17.45;100.00;99965.41;4955393;28;20031;-75
2023/10/21 07:12:14;;;;;;;3.33;1.88;;;;;;;18.24;100.00;100057.22;4957074;28;20049;-73
2023/10/21 07:14:40;;;;;;;2.42;2.25;;;;;;;17.95;100.00;99949.41;4954703;28;20043;-75
2023/10/21 07:23:48;;;;;;;2.38;2.05;;;;;;;17.98;100.00;99885.63;4956789;28;20062;-74
2023/10/21 07:26:45;;;;;;;3.03;2.80;;;;;;;19.25;100.00;100060.38;4956711;28;20452;-76
2023/10/21 07:29:11;;;;;;;4.03;3.55;;;;;;;19.17;100.00;100050.06;4954614;29;20047;-75
2023/10/21 07:31:36;;;;;;;3.28;2.90;;;;;;;19.15;100.00;100027.06;4956053;28;20526;-75
2023/10/21 07:34:02;;;;;;;2.42;2.22;;;;;;;19.58;100.00;100063.38;4954345;28;20134;-74
2023/10/21 07:36:28;;;;;;;5.15;4.25;;;;;;;18.93;100.00;99973.94;4955429;28;20540;-74
2023/10/21 07:38:53;;;;;;;2.08;1.90;;;;;;;19.39;100.00;100030.53;4955476;28;20546;-74
2023/10/21 07:41:19;;;;;;;5.50;2.78;;;;;;;19.81;100.00;100062.44;4956188;28;20079;-75
2023/10/21 07:43:45;;;;;;;5.18;2.22;;;;;;;19.95;100.00;100052.97;4954056;28;20043;-76
2023/10/21 07:46:11;;;;;;;3.22;2.05;;;;;;;19.57;100.00;99981.81;4954060;28;20046;-74
2023/10/21 07:48:36;;;;;;;4.18;2.95;;;;;;;20.27;100.00;100070.16;4955670;28;20035;-75
2023/10/21 07:51:02;;;;;;;3.25;1.92;;;;;;;19.89;100.00;99966.22;4953915;28;20043;-76
2023/10/21 07:53:29;;;;;;;2.17;1.05;;;;;;;20.29;100.00;99992.81;4998865;28;20478;-74
2023/10/21 07:55:54;;;;;;;0.65;0.63;;;;;;;20.42;98.27;100000.16;4974820;28;20038;-74
2023/10/21 07:58:20;;;;;;;4.80;3.33;;;;;;;20.57;96.65;99998.59;4974799;28;20047;-75
2023/10/21 08:00:46;;;;;;;1.63;1.23;;;;;;;21.05;93.10;100071.84;4974734;28;20447;-74
2023/10/21 08:06:34;;;;;;;4.82;4.18;;;;;;;21.54;82.51;100052.53;4977106;28;20175;-75
2023/10/21 08:09:00;;;;;;;2.05;1.52;;;;;;;21.34;84.35;100040.16;4982853;28;20501;-76
2023/10/21 08:11:25;;;;;;;9.88;5.97;;;;;;;21.52;78.87;100022.38;4973071;28;20026;-75
2023/10/21 08:13:51;;;;;;;2.75;2.03;;;;;;;21.82;77.29;100056.44;4974594;28;20065;-74
2023/10/21 08:16:17;;;;;;;1.45;1.25;;;;;;;21.62;72.98;100004.06;4974587;28;20486;-74
2023/10/21 08:18:43;;;;;;;1.27;1.17;;;;;;;21.72;70.39;99997.28;4974713;28;20114;-75
2023/10/21 08:21:08;;;;;;;0.98;0.77;;;;;;;22.38;68.08;100075.78;4972890;28;20456;-75
2023/10/21 08:26:55;;;;;;;1.67;1.42;;;;;;;22.41;61.83;99982.03;4974402;28;20105;-75
2023/10/21 08:29:47;;;;;;;1.27;0.90;;;;;;;22.75;63.66;100072.78;4974483;28;20026;-75
2023/10/21 08:32:12;;;;;;;1.88;1.70;;;;;;;22.35;63.43;99996.59;4972496;28;20117;-75
2023/10/21 08:34:38;;;;;;;1.65;1.55;;;;;;;23.09;60.67;100064.72;4973655;28;20094;-75
2023/10/21 08:37:07;;;;;;;1.05;0.95;;;;;;;22.40;60.13;99961.59;4972445;28;20054;-74
2023/10/21 08:39:36;;;;;;;1.33;1.20;;;;;;;23.10;58.96;100063.75;4972665;28;20126;-76
2023/10/21 08:52:15;;;;;;;7.35;3.33;;;;;;;23.11;56.98;100017.31;4962948;28;20057;-75
2023/10/21 09:02:25;;;;;;;3.70;1.95;;;;;;;23.64;53.46;99994.47;4955138;28;20392;-75
2023/10/21 09:04:50;;;;;;;32.05;2.90;;;;;;;24.07;52.95;100076.75;4968693;28;20525;-76
2023/10/21 09:07:16;;;;;;;1.35;1.25;;;;;;;23.64;52.38;99980.22;4969578;28;20042;-75
2023/10/21 09:09:41;;;;;;;1.58;1.48;;;;;;;24.20;54.14;100081.28;4954291;28;20039;-74
2023/10/21 09:15:35;;;;;;;4.68;2.05;;;;;;;24.51;51.11;100040.97;4968996;28;20038;-75
2023/10/21 09:18:11;;;;;;;4.47;1.75;;;;;;;24.98;49.43;100072.81;4972951;28;20023;-74
2023/10/21 09:20:37;;;;;;;1.42;1.33;;;;;;;24.36;49.42;99978.41;4973780;28;20061;-74
2023/10/21 09:26:32;;;;;;;2.63;2.42;;;;;;;24.19;48.64;99910.66;4974042;28;20430;-74
2023/10/21 09:32:00;;;;;;;4.55;1.52;;;;;;;25.22;48.76;100061.44;4973675;28;20277;-73
2023/10/21 09:44:34;;;;;;;1.00;1.00;;;;;;;25.22;47.08;100002.34;4973945;28;20049;-76
2023/10/21 09:50:24;;;;;;;3.17;1.90;;;;;;;25.76;47.05;100053.28;4973044;28;20038;-74
2023/10/21 09:53:06;;;;;;;1.08;0.75;;;;;;;25.83;47.32;100049.19;4971502;28;20062;-74
2023/10/21 09:55:33;;;;;;;1.52;1.17;;;;;;;25.66;47.50;100015.44;4973249;28;20042;-74
2023/10/21 10:01:23;;;;;;;0.57;0.52;;;;;;;25.92;45.44;100020.84;4972522;28;20046;-73
2023/10/21 10:07:12;;;;;;;18.75;3.33;;;;;;;26.02;45.43;100010.28;4973018;28;20045;-74
2023/10/21 10:09:40;;;;;;;0.30;0.30;;;;;;;25.75;44.77;99949.41;4972556;28;20097;-74
2023/10/21 10:12:24;;;;;;;1.95;1.10;;;;;;;25.95;44.13;99947.19;4971025;28;20030;-75
2023/10/21 10:18:18;;;;;;;2.50;0.95;;;;;;;26.31;43.00;99943.63;4989103;28;20106;-75
2023/10/21 10:20:52;;;;;;;1.30;1.20;;;;;;;26.56;43.24;100019.91;5003749;28;20053;-75
2023/10/21 10:23:25;;;;;;;1.35;1.25;;;;;;;26.59;42.95;99987.38;4973216;28;20039;-75
2023/10/21 10:36:32;;;;;;;1.63;1.52;;;;;;;27.15;42.15;100009.22;4974686;28;20082;-74
2023/10/21 10:39:32;;;;;;;2.85;1.75;;;;;;;27.16;42.39;100011.81;5007592;28;20566;-75
2023/10/21 10:42:11;;;;;;;0.70;0.68;;;;;;;27.18;41.99;100003.59;4955756;28;20490;-75
2023/10/21 10:44:38;;;;;;;0.73;0.73;;;;;;;26.76;42.09;99917.00;4962112;28;20074;-75
2023/10/21 10:47:05;;;;;;;8.32;3.50;;;;;;;27.34;41.91;100014.09;4970577;28;20101;-74
2023/10/21 10:49:30;;;;;;;3.05;1.77;;;;;;;27.48;40.72;100004.94;4972457;28;20055;-75
2023/10/21 10:51:56;;;;;;;0.52;0.52;;;;;;;27.60;40.93;99984.28;4974392;28;20395;-74
2023/10/21 10:54:25;;;;;;;0.75;0.75;;;;;;;26.56;40.75;99802.78;4976138;28;20513;-74
2023/10/21 11:03:36;;;;;;;0.50;0.38;;;;;;;27.31;40.82;99925.41;4974316;28;20061;-75
2023/10/21 11:06:03;;;;;;;2.17;2.03;;;;;;;27.67;41.60;99986.34;4971766;28;20027;-74
2023/10/21 11:08:30;;;;;;;1.70;1.50;;;;;;;27.53;40.89;99962.31;4974359;28;20038;-74
2023/10/21 11:11:03;;;;;;;1.65;1.55;;;;;;;27.93;40.69;100014.03;4975468;28;20391;-75
2023/10/21 11:13:29;;;;;;;1.42;0.60;;;;;;;27.96;40.34;100002.13;4968635;28;20376;-75
2023/10/21 11:15:57;;;;;;;0.43;0.43;;;;;;;28.03;39.99;99984.47;4956346;28;20035;-74
2023/10/21 11:18:25;;;;;;;0.10;0.10;;;;;;;28.04;39.95;100015.84;4956005;28;20416;-74
2023/10/21 11:20:52;;;;;;;0.85;0.85;;;;;;;28.16;38.79;100012.16;4955931;28;20039;-74
2023/10/21 11:23:19;;;;;;;1.10;0.68;;;;;;;27.83;39.11;99977.97;4969444;28;20019;-75
2023/10/21 11:25:56;;;;;;;1.55;1.45;;;;;;;27.49;38.40;99920.44;4973845;28;20051;-74
2023/10/21 11:31:44;;;;;;;1.30;1.20;;;;;;;27.73;38.81;99936.50;4972207;28;20042;-76
2023/10/21 11:34:14;;;;;;;1.25;0.47;;;;;;;27.90;39.03;99937.88;4955390;28;20039;-75
2023/10/21 11:36:45;;;;;;;2.42;2.22;;;;;;;27.57;39.50;99896.41;4955865;28;20039;-74
2023/10/21 11:39:21;;;;;;;1.70;1.10;;;;;;;28.08;38.97;99970.63;4964332;28;20035;-74
2023/10/21 11:41:48;;;;;;;3.03;2.35;;;;;;;27.88;39.08;99929.91;4952554;28;20390;-75
2023/10/21 11:44:16;;;;;;;0.85;0.73;;;;;;;28.29;38.90;100008.50;4956121;28;20035;-73
2023/10/21 11:50:03;;;;;;;4.35;2.47;;;;;;;28.26;38.50;100003.34;4955392;28;20364;-74
2023/10/21 11:52:29;;;;;;;0.73;0.73;;;;;;;28.18;38.76;100007.50;4957070;28;20054;-74
2023/10/21 11:58:10;;;;;;;0.60;0.57;;;;;;;27.76;39.21;99917.38;4971511;28;20389;-75
2023/10/21 12:30:03;;;;;;;0.77;0.60;;;;;;;28.42;36.66;99998.41;4972480;28;20536;-75
2023/10/21 12:47:36;;;;;;;1.55;1.00;;;;;;;28.63;35.43;99979.63;4974679;28;20076;-75
2023/10/21 12:50:12;;;;;;;0.40;0.40;;;;;;;28.43;36.11;99989.34;4973825;28;20054;-74
2023/10/21 12:52:38;;;;;;;0.82;0.82;;;;;;;28.62;35.46;99986.03;4969292;28;20133;-74
2023/10/21 12:55:10;;;;;;;1.02;0.93;;;;;;;28.06;36.04;99919.47;4972485;28;20077;-74
2023/10/21 13:07:47;;;;;;;1.95;1.70;;;;;;;26.98;36.55;99789.66;4972101;28;20146;-75
2023/10/21 13:13:36;;;;;;;3.25;1.30;;;;;;;28.41;36.31;100008.38;4954289;28;20037;-74
2023/10/21 13:22:46;;;;;;;0.88;0.88;;;;;;;28.35;35.98;100000.78;4973449;28;20038;-74
2023/10/21 13:25:17;;;;;;;3.95;3.47;;;;;;;27.94;35.63;99917.78;4969697;28;20111;-77
2023/10/21 13:27:44;;;;;;;6.05;2.75;;;;;;;28.45;35.70;99997.31;4973209;28;20113;-74
2023/10/21 13:33:31;;;;;;;0.85;0.57;;;;;;;27.94;35.85;99910.53;4973434;28;20060;-74
2023/10/21 13:35:57;;;;;;;4.30;3.08;;;;;;;28.34;35.33;99976.59;4971030;28;20455;-75
2023/10/21 13:38:23;;;;;;;2.47;1.92;;;;;;;28.37;35.92;99989.84;4972790;28;20027;-75
2023/10/21 13:40:52;;;;;;;1.90;1.50;;;;;;;28.26;35.98;99971.84;4973293;28;20081;-75
2023/10/21 13:44:05;;;;;;;1.65;1.33;;;;;;;28.42;36.10;100001.13;4973628;28;20038;-75
2023/10/21 13:49:53;;;;;;;2.05;1.88;;;;;;;28.04;36.61;99947.56;4967486;28;20178;-73
2023/10/21 13:52:19;;;;;;;2.75;1.42;;;;;;;27.86;36.03;99909.44;4968356;28;20035;-76
2023/10/21 13:54:45;;;;;;;0.30;0.30;;;;;;;27.77;36.17;99914.56;4969540;28;20053;-75
2023/10/21 13:57:11;;;;;;;5.38;2.67;;;;;;;28.00;36.48;99973.91;4973048;28;20038;-75
2023/10/21 14:03:08;;;;;;;1.38;0.98;;;;;;;27.40;36.98;99911.22;4973454;28;20068;-74
2023/10/21 14:12:17;;;;;;;2.33;2.03;;;;;;;27.73;37.11;99991.28;4976890;28;20029;-75
2023/10/21 14:18:06;;;;;;;0.85;0.75;;;;;;;27.21;37.55;99921.72;4976916;28;20042;-75
2023/10/21 14:20:40;;;;;;;1.58;1.25;;;;;;;27.06;37.96;99921.88;4975134;28;20067;-74
2023/10/21 14:23:18;;;;;;;0.80;0.75;;;;;;;27.47;37.60;99995.16;4974371;28;20105;-75
2023/10/21 14:26:11;;;;;;;1.27;0.85;;;;;;;27.29;38.75;99989.34;4961899;28;20043;-74
2023/10/21 14:28:38;;;;;;;1.17;1.02;;;;;;;26.71;38.73;99901.22;4957024;28;20060;-75
2023/10/21 14:31:06;;;;;;;0.40;0.40;;;;;;;26.67;38.63;99904.25;4957000;28;20479;-74
2023/10/21 14:33:34;;;;;;;0.73;0.73;;;;;;;27.07;38.62;99993.63;4987974;28;20467;-74
2023/10/21 14:36:10;;;;;;;6.93;3.20;;;;;;;26.75;39.66;99963.75;4961021;28;20085;-74
2023/10/21 14:38:37;;;;;;;12.07;2.95;;;;;;;26.68;39.92;99982.19;4974794;28;20106;-78
2023/10/21 14:48:00;;;;;;;1.33;1.23;;;;;;;25.64;41.75;99891.06;4974773;28;20053;-75
2023/10/21 14:50:27;;;;;;;3.67;2.65;;;;;;;26.14;42.46;99984.34;4969318;28;20113;-74
2023/10/21 14:52:53;;;;;;;1.27;1.10;;;;;;;25.75;42.75;99944.03;4971138;28;20055;-75
2023/10/21 14:55:19;;;;;;;0.80;0.80;;;;;;;25.86;43.32;99988.97;4975931;28;20042;-75
2023/10/21 14:57:44;;;;;;;1.23;1.13;;;;;;;25.15;43.58;99902.50;4975982;28;20541;-75
2023/10/21 15:00:15;;;;;;;3.38;3.13;;;;;;;25.38;43.59;99967.22;4991056;28;20035;-75
2023/10/21 15:02:43;;;;;;;5.72;2.08;;;;;;;25.45;44.74;99998.97;4976574;28;20121;-74
2023/10/21 15:05:11;;;;;;;5.45;2.00;;;;;;;25.24;45.55;99990.53;4973729;28;20089;-74
2023/10/21 15:07:37;;;;;;;2.22;1.95;;;;;;;25.11;46.38;99983.38;4974141;28;20043;-74
2023/10/21 15:10:15;;;;;;;7.53;4.65;;;;;;;24.59;47.35;99908.06;5000040;28;20035;-75
2023/10/21 15:12:44;;;;;;;2.70;2.50;;;;;;;24.45;48.10;99905.41;4955224;28;20076;-75
2023/10/21 15:15:12;;;;;;;1.85;1.75;;;;;;;24.75;48.95;99982.19;4956450;28;20070;-75
2023/10/21 15:21:05;;;;;;;2.60;2.40;;;;;;;24.63;52.68;100013.34;4957572;28;20042;-74
2023/10/21 15:23:39;;;;;;;6.35;4.68;;;;;;;24.35;55.08;99996.34;4957432;28;20028;-75
2023/10/21 15:26:15;;;;;;;1.90;1.58;;;;;;;23.94;58.17;99994.44;4962317;28;20025;-75
2023/10/21 15:28:40;;;;;;;4.03;3.67;;;;;;;23.96;59.84;100019.34;4975689;28;20131;-76
2023/10/21 15:31:07;;;;;;;1.55;1.45;;;;;;;23.75;59.06;99996.53;4975925;28;20498;-74
2023/10/21 15:33:32;;;;;;;2.10;1.23;;;;;;;23.14;59.04;99912.72;5006846;28;20465;-74
2023/10/21 15:35:58;;;;;;;6.57;2.35;;;;;;;23.47;59.63;100029.47;4974615;28;20121;-74
2023/10/21 15:38:25;;;;;;;2.83;2.60;;;;;;;22.84;61.28;99931.44;4971257;28;20033;-74
2023/10/21 15:40:50;;;;;;;2.00;1.85;;;;;;;22.21;64.32;99878.91;5003359;28;20037;-74
2023/10/21 15:50:14;;;;;;;3.30;2.70;;;;;;;22.72;71.65;100019.47;4973832;28;20050;-75
2023/10/21 15:56:55;;;;;;;26.35;3.90;;;;;;;21.29;86.50;99810.03;4962819;28;20390;-75
2023/10/21 15:59:20;;;;;;;10.90;3.95;;;;;;;22.65;92.85;100060.03;4973610;28;20177;-73
2023/10/21 16:05:08;;;;;;;2.55;2.30;;;;;;;21.85;100.00;100003.72;4974859;28;20109;-75
2023/10/21 16:07:34;;;;;;;4.88;4.07;;;;;;;21.95;94.65;100033.47;4974257;28;20038;-75
2023/10/21 16:09:59;;;;;;;6.05;5.45;;;;;;;21.35;94.24;99956.47;4971625;28;20050;-75
2023/10/21 16:12:27;;;;;;;23.70;7.07;;;;;;;21.78;96.01;100039.72;4972462;28;20052;-75
2023/10/21 16:18:14;;;;;;;7.00;6.30;;;;;;;21.29;95.62;100012.84;4972690;28;20121;-76
2023/10/21 16:20:40;;;;;;;6.10;4.15;;;;;;;21.31;96.07;100024.31;4972881;28;20483;-75
2023/10/21 16:23:06;;;;;;;10.20;8.40;;;;;;;21.42;96.76;100051.38;4973837;28;20038;-74
2023/10/21 16:28:53;;;;;;;7.97;6.75;;;;;;;21.30;99.17;100062.59;4974229;28;20054;-75
2023/10/21 16:34:41;;;;;;;16.13;12.57;;;;;;;20.77;97.84;99991.44;4972956;28;20117;-75
2023/10/21 16:37:08;;;;;;;16.33;11.48;;;;;;;21.21;98.33;100079.97;4973958;28;20567;-75
2023/10/21 16:39:33;;;;;;;17.50;10.25;;;;;;;21.02;99.68;100058.63;4972504;28;20035;-75
2023/10/21 16:42:00;;;;;;;8.77;7.55;;;;;;;20.30;100.00;99984.75;4974213;28;20042;-74
2023/10/21 16:44:26;;;;;;;35.63;12.10;;;;;;;20.86;100.00;100077.19;4973268;28;20352;-74
2023/10/21 16:50:14;;;;;;;6.72;6.10;;;;;;;20.30;100.00;100011.41;4973273;28;20438;-74
2023/10/21 16:52:40;;;;;;;8.02;6.97;;;;;;;20.69;100.00;100070.94;4973561;28;20062;-74
2023/10/21 16:55:07;;;;;;;23.05;8.10;;;;;;;20.69;100.00;100068.28;4973837;28;20427;-74
2023/10/21 16:57:32;;;;;;;6.78;4.93;;;;;;;20.62;100.00;100067.69;4970262;28;20054;-74
2023/10/21 17:03:19;;;;;;;14.65;6.65;;;;;;;20.43;100.00;100047.19;4954357;28;20555;-74
2023/10/21 17:05:46;;;;;;;4.18;3.80;;;;;;;19.69;100.00;99969.81;4954070;28;20145;-74
2023/10/21 17:08:12;;;;;;;7.72;5.70;;;;;;;20.32;100.00;100069.94;4954060;28;20053;-74
2023/10/21 17:10:37;;;;;;;8.00;5.88;;;;;;;20.28;100.00;100055.91;4954170;28;20043;-75
2023/10/21 17:16:24;;;;;;;19.42;8.18;;;;;;;19.69;100.00;99975.13;4954482;28;20039;-74
2023/10/21 17:18:50;;;;;;;5.65;3.42;;;;;;;20.08;100.00;100055.94;4955998;28;20030;-74
2023/10/21 17:24:37;;;;;;;8.27;6.68;;;;;;;19.55;100.00;99991.69;4973441;28;20068;-74
2023/10/21 17:30:25;;;;;;;14.82;7.93;;;;;;;19.26;100.00;99984.06;4954150;28;20090;-75
2023/10/21 17:32:50;;;;;;;8.60;7.75;;;;;;;18.25;100.00;99830.53;4952421;28;20039;-75
2023/10/21 17:35:16;;;;;;;8.60;7.57;;;;;;;19.56;100.00;100070.56;4954906;28;20031;-74
2023/10/21 17:37:41;;;;;;;13.02;8.80;;;;;;;19.06;100.00;99996.44;4966055;28;20034;-74